Greenfield Township, Maine
Current Conditions -  °F | °C
As of 5:53 AM on Friday 24 Oct 2014 (Local Time) from KBGR Reporting Station
Light Rain Light Rain  
Wind Chill: 38°   Ceiling: 700
Heat Index: 45°   Visibility: 10mi
Dew Point: 44°   Wind: 15mph
Humidity: 97%   Direction: 360°N
Pressure: 29.68"   Gusts: NA
Location:  45.0802°N, 68.5883°W
Report Text: KBGR 240953Z 36013KT 10SM -RA OVC007 07/07 A2968 RMK AO2 RAB19 SLP050 P0001 T00720067
Loading
Personal Weather Stations






























Interactive Weather Map
Tropical Storm Tracking
New forecast layout! Learn more

10-Day Weather Forecast

Advertisements
Track Severe Weather on mobile